createdAt,value
2022-12-18T00:01:26.376Z,-2.87
2022-12-18T00:03:55.287Z,-2.99
2022-12-18T00:06:23.856Z,-3.11
2022-12-18T00:08:52.009Z,-3.17
2022-12-18T00:11:22.386Z,-3.31
2022-12-18T00:13:52.755Z,-3.37
2022-12-18T00:16:23.030Z,-3.49
2022-12-18T00:18:52.180Z,-3.56
2022-12-18T00:21:20.417Z,-3.63
2022-12-18T00:23:49.086Z,-3.70
2022-12-18T00:26:22.166Z,-3.66
2022-12-18T00:28:52.726Z,-3.80
2022-12-18T00:31:22.900Z,-3.79
2022-12-18T00:33:54.619Z,-3.81
2022-12-18T00:36:25.414Z,-3.84
2022-12-18T00:38:53.976Z,-3.86
2022-12-18T00:41:45.520Z,-3.91
2022-12-18T00:44:19.638Z,-3.90
2022-12-18T00:46:48.941Z,-3.93
2022-12-18T00:49:19.941Z,-3.99
2022-12-18T00:51:48.485Z,-4.07
2022-12-18T00:54:16.590Z,-4.17
2022-12-18T00:56:51.213Z,-4.23
2022-12-18T00:59:19.250Z,-4.26
2022-12-18T01:01:48.016Z,-4.06
2022-12-18T01:04:15.834Z,-4.02
2022-12-18T01:06:46.585Z,-4.06
2022-12-18T01:09:14.287Z,-4.10
2022-12-18T01:11:41.745Z,-4.16
2022-12-18T01:14:09.048Z,-4.19
2022-12-18T01:16:38.554Z,-4.24
2022-12-18T01:19:05.681Z,-4.28
2022-12-18T01:21:33.696Z,-4.26
2022-12-18T01:24:05.073Z,-4.20
2022-12-18T01:26:32.503Z,-4.28
2022-12-18T01:29:01.800Z,-4.24
2022-12-18T01:31:32.186Z,-4.34
2022-12-18T01:34:02.429Z,-4.36
2022-12-18T01:36:32.990Z,-4.35
2022-12-18T01:39:01.871Z,-4.35
2022-12-18T01:41:49.921Z,-4.43
2022-12-18T01:44:55.420Z,-4.46
2022-12-18T01:47:41.672Z,-4.50
2022-12-18T01:50:16.244Z,-4.46
2022-12-18T01:52:48.197Z,-4.53
2022-12-18T01:55:19.356Z,-4.52
2022-12-18T01:57:53.461Z,-4.57
2022-12-18T02:00:25.002Z,-4.64
2022-12-18T02:02:53.278Z,-4.72
2022-12-18T02:05:34.205Z,-4.84
2022-12-18T02:08:27.358Z,-4.88
2022-12-18T02:11:21.734Z,-4.89
2022-12-18T02:14:03.160Z,-4.91
2022-12-18T02:16:33.726Z,-4.97
2022-12-18T02:19:08.243Z,-5.01
2022-12-18T02:21:45.837Z,-4.96
2022-12-18T02:24:30.716Z,-4.98
2022-12-18T02:27:01.904Z,-4.98
2022-12-18T02:29:57.881Z,-5.03
2022-12-18T02:32:29.856Z,-4.99
2022-12-18T02:34:59.674Z,-4.96
2022-12-18T02:37:31.536Z,-4.92
2022-12-18T02:40:04.346Z,-5.00
2022-12-18T02:42:33.593Z,-5.05
2022-12-18T02:45:08.661Z,-5.10
2022-12-18T02:47:41.533Z,-5.07
2022-12-18T02:50:31.417Z,-5.04
2022-12-18T02:53:11.206Z,-5.12
2022-12-18T02:56:04.638Z,-5.19
2022-12-18T02:58:45.184Z,-5.23
2022-12-18T03:01:29.436Z,-5.29
2022-12-18T03:04:03.878Z,-5.33
2022-12-18T03:06:41.361Z,-5.35
2022-12-18T03:09:19.553Z,-5.32
2022-12-18T03:12:14.173Z,-5.37
2022-12-18T03:14:43.478Z,-5.39
2022-12-18T03:17:15.870Z,-5.31
2022-12-18T03:19:45.117Z,-5.34
2022-12-18T03:22:13.706Z,-5.32
2022-12-18T03:24:47.611Z,-5.27
2022-12-18T03:27:21.243Z,-5.27
2022-12-18T03:29:56.644Z,-5.38
2022-12-18T03:32:32.128Z,-5.43
2022-12-18T03:35:05.502Z,-5.42
2022-12-18T03:37:36.573Z,-5.52
2022-12-18T03:40:05.814Z,-5.56
2022-12-18T03:42:54.701Z,-5.60
2022-12-18T03:45:34.139Z,-5.63
2022-12-18T03:48:09.196Z,-5.62
2022-12-18T03:50:56.174Z,-5.54
2022-12-18T03:53:40.728Z,-5.67
2022-12-18T03:56:10.479Z,-5.73
2022-12-18T03:58:43.232Z,-5.74
2022-12-18T04:01:30.320Z,-5.73
2022-12-18T04:04:03.065Z,-5.78
2022-12-18T04:06:34.785Z,-5.86
2022-12-18T04:09:02.781Z,-5.89
2022-12-18T04:11:32.036Z,-5.88
2022-12-18T04:14:02.726Z,-5.91
2022-12-18T04:16:33.181Z,-5.90
2022-12-18T04:19:04.693Z,-5.91
2022-12-18T04:21:38.116Z,-5.90
2022-12-18T04:24:09.428Z,-5.92
2022-12-18T04:26:39.781Z,-6.01
2022-12-18T04:29:17.464Z,-5.99
2022-12-18T04:31:44.480Z,-6.02
2022-12-18T04:34:14.531Z,-5.99
2022-12-18T04:36:50.728Z,-5.97
2022-12-18T04:39:19.646Z,-6.02
2022-12-18T04:41:49.106Z,-6.00
2022-12-18T04:44:17.598Z,-6.02
2022-12-18T04:46:44.871Z,-6.04
2022-12-18T04:49:14.757Z,-6.06
2022-12-18T04:51:41.833Z,-6.14
2022-12-18T04:54:09.120Z,-6.11
2022-12-18T04:56:36.130Z,-6.13
2022-12-18T04:59:03.509Z,-6.10
2022-12-18T05:01:34.530Z,-6.08
2022-12-18T05:04:05.120Z,-6.12
2022-12-18T05:06:32.150Z,-6.14
2022-12-18T05:08:59.940Z,-6.16
2022-12-18T05:11:26.883Z,-6.14
2022-12-18T05:13:54.133Z,-6.12
2022-12-18T05:16:21.131Z,-6.15
2022-12-18T05:18:48.411Z,-6.14
2022-12-18T05:21:15.582Z,-6.19
2022-12-18T05:23:43.348Z,-6.16
2022-12-18T05:26:18.992Z,-6.17
2022-12-18T05:28:47.024Z,-6.16
2022-12-18T05:31:14.979Z,-6.21
2022-12-18T05:33:42.789Z,-6.18
2022-12-18T05:36:10.775Z,-6.14
2022-12-18T05:38:40.296Z,-6.16
2022-12-18T05:41:08.685Z,-6.22
2022-12-18T05:43:38.360Z,-6.32
2022-12-18T05:46:08.159Z,-6.29
2022-12-18T05:48:35.589Z,-6.30
2022-12-18T05:51:08.566Z,-6.31
2022-12-18T05:53:39.604Z,-6.36
2022-12-18T05:56:09.184Z,-6.36
2022-12-18T05:58:38.099Z,-6.37
2022-12-18T06:01:15.047Z,-6.42
2022-12-18T06:03:42.921Z,-6.39
2022-12-18T06:06:18.853Z,-6.41
2022-12-18T06:08:46.952Z,-6.46
2022-12-18T06:11:17.845Z,-6.51
2022-12-18T06:13:45.337Z,-6.56
2022-12-18T06:16:12.426Z,-6.61
2022-12-18T06:18:39.867Z,-6.58
2022-12-18T06:21:07.385Z,-6.60
2022-12-18T06:23:37.614Z,-6.61
2022-12-18T06:26:07.004Z,-6.61
2022-12-18T06:28:34.289Z,-6.59
2022-12-18T06:31:03.573Z,-6.60
2022-12-18T06:33:31.682Z,-6.58
2022-12-18T06:36:04.439Z,-6.57
2022-12-18T06:38:33.627Z,-6.51
2022-12-18T06:41:01.096Z,-6.52
2022-12-18T06:43:30.789Z,-6.54
2022-12-18T06:46:01.817Z,-6.53
2022-12-18T06:48:29.565Z,-6.55
2022-12-18T06:50:56.854Z,-6.54
2022-12-18T06:53:24.120Z,-6.51
2022-12-18T06:55:51.355Z,-6.50
2022-12-18T06:58:18.691Z,-6.41
2022-12-18T07:00:48.448Z,-6.45
2022-12-18T07:03:16.043Z,-6.41
2022-12-18T07:05:45.448Z,-6.38
2022-12-18T07:08:15.209Z,-6.36
2022-12-18T07:10:48.164Z,-6.27
2022-12-18T07:13:19.704Z,-6.22
2022-12-18T07:15:49.431Z,-6.22
2022-12-18T07:18:16.728Z,-6.19
2022-12-18T07:20:43.734Z,-6.12
2022-12-18T07:23:11.194Z,-6.11
2022-12-18T07:25:38.596Z,-5.98
2022-12-18T07:28:05.929Z,-5.81
2022-12-18T07:30:32.976Z,-5.52
2022-12-18T07:33:00.282Z,-5.20
2022-12-18T07:35:27.264Z,-4.82
2022-12-18T07:37:54.495Z,-4.18
2022-12-18T07:40:21.417Z,-3.76
2022-12-18T07:42:48.668Z,-3.51
2022-12-18T07:45:15.709Z,-3.14
2022-12-18T07:47:42.990Z,-2.97
2022-12-18T07:50:10.633Z,-2.55
2022-12-18T07:52:37.991Z,-2.62
2022-12-18T07:55:05.556Z,-2.69
2022-12-18T07:57:50.213Z,-2.52
2022-12-18T08:00:18.553Z,-2.71
2022-12-18T08:02:46.057Z,-2.84
2022-12-18T08:05:14.357Z,-3.08
2022-12-18T08:07:42.235Z,-3.18
2022-12-18T08:10:11.883Z,-3.14
2022-12-18T08:12:39.321Z,-3.30
2022-12-18T08:15:07.211Z,-3.32
2022-12-18T08:17:34.726Z,-3.30
2022-12-18T08:20:03.081Z,-3.34
2022-12-18T08:22:36.531Z,-3.29
2022-12-18T08:25:04.840Z,-3.21
2022-12-18T08:27:32.719Z,-3.10
2022-12-18T08:30:00.047Z,-2.86
2022-12-18T08:32:33.437Z,-2.82
2022-12-18T08:35:00.498Z,-2.97
2022-12-18T08:37:27.932Z,-2.93
2022-12-18T08:39:54.915Z,-2.85
2022-12-18T08:42:40.699Z,-2.77
2022-12-18T08:45:08.339Z,-2.88
2022-12-18T08:47:35.900Z,-2.91
2022-12-18T08:50:03.163Z,-2.90
2022-12-18T08:52:33.601Z,-2.81
2022-12-18T08:55:01.467Z,-2.73
2022-12-18T08:57:28.655Z,-2.69
2022-12-18T08:59:56.246Z,-2.53
2022-12-18T09:02:26.003Z,-2.48
2022-12-18T09:04:57.276Z,-2.43
2022-12-18T09:07:24.950Z,-2.39
2022-12-18T09:09:52.921Z,-2.49
2022-12-18T09:12:20.055Z,-2.38
2022-12-18T09:14:48.056Z,-2.46
2022-12-18T09:17:15.410Z,-2.40
2022-12-18T09:19:45.231Z,-2.34
2022-12-18T09:22:12.495Z,-2.36
2022-12-18T09:24:40.147Z,-2.30
2022-12-18T09:27:07.287Z,-2.28
2022-12-18T09:29:34.874Z,-2.23
2022-12-18T09:32:04.039Z,-2.28
2022-12-18T09:34:31.397Z,-2.23
2022-12-18T09:36:58.552Z,-2.21
2022-12-18T09:39:28.277Z,-2.16
2022-12-18T09:41:58.358Z,-2.12
2022-12-18T09:44:47.132Z,-2.25
2022-12-18T09:47:19.781Z,-2.24
2022-12-18T09:49:57.939Z,-2.36
2022-12-18T09:52:32.055Z,-2.50
2022-12-18T09:55:17.625Z,-2.47
2022-12-18T09:57:52.354Z,-2.45
2022-12-18T10:00:22.793Z,-2.49
2022-12-18T10:02:58.433Z,-2.32
2022-12-18T10:05:55.090Z,-2.31
2022-12-18T10:09:05.264Z,-2.35
2022-12-18T10:11:41.079Z,-2.18
2022-12-18T10:14:19.778Z,-2.15
2022-12-18T10:16:59.399Z,-2.25
2022-12-18T10:19:26.395Z,-2.22
2022-12-18T10:22:12.652Z,-2.14
2022-12-18T10:25:02.628Z,-2.03
2022-12-18T10:27:30.844Z,-2.02
2022-12-18T10:29:59.296Z,-1.96
2022-12-18T10:32:30.548Z,-2.05
2022-12-18T10:35:00.704Z,-1.98
2022-12-18T10:37:30.926Z,-2.10
2022-12-18T10:40:16.652Z,-2.03
2022-12-18T10:43:04.239Z,-2.15
2022-12-18T10:45:31.785Z,-2.34
2022-12-18T10:48:00.098Z,-2.41
2022-12-18T10:51:09.164Z,-2.40
2022-12-18T10:53:26.416Z,-2.40
2022-12-18T10:55:56.610Z,-2.44
2022-12-18T10:58:27.348Z,-2.40
2022-12-18T11:01:21.768Z,-2.25
2022-12-18T11:04:10.284Z,-2.37
2022-12-18T11:06:54.720Z,-2.37
2022-12-18T11:09:24.942Z,-2.30
2022-12-18T11:11:54.980Z,-2.31
2022-12-18T11:14:29.962Z,-2.35
2022-12-18T11:19:54.035Z,-2.28
2022-12-18T11:22:33.155Z,-2.17
2022-12-18T11:25:34.664Z,-2.11
2022-12-18T11:28:25.460Z,-1.98
2022-12-18T11:31:24.042Z,-2.04
2022-12-18T11:34:28.048Z,-2.07
2022-12-18T11:36:53.569Z,-1.99
2022-12-18T11:39:40.392Z,-2.00
2022-12-18T11:42:21.461Z,-2.10
2022-12-18T11:44:53.721Z,-2.16
2022-12-18T11:47:38.173Z,-2.27
2022-12-18T11:50:15.407Z,-2.42
2022-12-18T11:52:44.038Z,-2.36
2022-12-18T11:55:24.484Z,-2.31
2022-12-18T11:57:59.824Z,-2.24
2022-12-18T12:00:27.177Z,-2.35
2022-12-18T12:03:25.585Z,-2.30
2022-12-18T12:06:03.180Z,-2.42
2022-12-18T12:09:26.163Z,-2.44
2022-12-18T12:12:05.338Z,-2.51
2022-12-18T12:14:54.670Z,-2.50
2022-12-18T12:17:39.154Z,-2.52
2022-12-18T12:20:18.043Z,-2.55
2022-12-18T12:23:06.935Z,-2.57
2022-12-18T12:26:03.685Z,-2.42
2022-12-18T12:29:01.412Z,-2.48
2022-12-18T12:31:38.936Z,-2.30
2022-12-18T12:34:23.987Z,-2.21
2022-12-18T12:37:19.694Z,-2.21
2022-12-18T12:39:48.939Z,-2.20
2022-12-18T12:43:04.513Z,-2.27
2022-12-18T12:45:42.275Z,-2.31
2022-12-18T12:48:19.588Z,-2.22
2022-12-18T12:50:47.703Z,-2.35
2022-12-18T12:53:28.066Z,-2.47
2022-12-18T12:55:56.159Z,-2.71
2022-12-18T12:58:44.443Z,-2.70
2022-12-18T13:01:23.437Z,-2.77
2022-12-18T13:03:58.704Z,-2.65
2022-12-18T13:06:41.573Z,-2.65
2022-12-18T13:09:12.087Z,-2.60
2022-12-18T13:12:00.627Z,-2.68
2022-12-18T13:14:37.803Z,-2.69
2022-12-18T13:17:37.582Z,-2.74
2022-12-18T13:20:11.500Z,-2.71
2022-12-18T13:22:44.613Z,-2.68
2022-12-18T13:25:44.612Z,-2.71
2022-12-18T13:28:16.960Z,-2.63
2022-12-18T13:30:53.735Z,-2.58
2022-12-18T13:33:26.124Z,-2.52
2022-12-18T13:35:54.852Z,-2.55
2022-12-18T13:38:39.557Z,-2.57
2022-12-18T13:41:16.331Z,-2.63
2022-12-18T13:43:47.374Z,-2.67
2022-12-18T13:46:21.408Z,-2.72
2022-12-18T13:49:18.630Z,-2.74
2022-12-18T13:51:50.302Z,-2.73
2022-12-18T13:54:46.401Z,-2.77
2022-12-18T13:57:26.759Z,-2.71
2022-12-18T13:59:53.819Z,-2.73
2022-12-18T14:02:27.402Z,-2.71
2022-12-18T14:04:55.518Z,-2.67
2022-12-18T14:07:34.697Z,-2.66
2022-12-18T14:13:07.960Z,-2.74
2022-12-18T14:15:42.593Z,-2.73
2022-12-18T14:18:28.642Z,-2.71
2022-12-18T14:20:58.658Z,-2.73
2022-12-18T14:23:38.774Z,-2.73
2022-12-18T14:26:28.322Z,-2.79
2022-12-18T14:29:19.081Z,-2.74
2022-12-18T14:31:46.953Z,-2.77
2022-12-18T14:34:18.304Z,-2.78
2022-12-18T14:36:54.460Z,-2.80
2022-12-18T14:39:21.920Z,-2.72
2022-12-18T14:41:54.213Z,-2.73
2022-12-18T14:44:22.803Z,-2.76
2022-12-18T14:46:52.220Z,-2.81
2022-12-18T14:49:31.337Z,-2.81
2022-12-18T14:52:07.585Z,-2.81
2022-12-18T14:54:38.255Z,-2.90
2022-12-18T14:57:14.842Z,-2.91
2022-12-18T14:59:42.377Z,-2.95
2022-12-18T15:02:25.466Z,-2.92
2022-12-18T15:05:12.902Z,-2.93
2022-12-18T15:07:43.714Z,-2.90
2022-12-18T15:10:15.959Z,-2.87
2022-12-18T15:12:46.059Z,-3.03
2022-12-18T15:15:39.231Z,-3.07
2022-12-18T15:18:13.255Z,-3.04
2022-12-18T15:20:44.362Z,-2.98
2022-12-18T15:23:49.587Z,-3.03
2022-12-18T15:26:21.762Z,-2.99
2022-12-18T15:29:01.427Z,-3.01
2022-12-18T15:31:36.812Z,-3.05
2022-12-18T15:34:13.763Z,-3.04
2022-12-18T15:36:41.673Z,-3.04
2022-12-18T15:39:14.459Z,-3.05
2022-12-18T15:42:04.796Z,-3.05
2022-12-18T15:44:36.149Z,-3.04
2022-12-18T15:47:04.538Z,-2.97
2022-12-18T15:49:32.456Z,-2.95
2022-12-18T15:52:04.458Z,-2.94
2022-12-18T15:54:51.723Z,-3.01
2022-12-18T15:57:25.743Z,-3.02
2022-12-18T15:59:55.675Z,-2.98
2022-12-18T16:02:24.591Z,-3.04
2022-12-18T16:04:54.480Z,-2.97
2022-12-18T16:07:24.967Z,-2.91
2022-12-18T16:09:54.346Z,-2.88
2022-12-18T16:12:26.998Z,-2.85
2022-12-18T16:14:54.890Z,-2.82
2022-12-18T16:17:25.819Z,-2.81
2022-12-18T16:19:54.521Z,-2.81
2022-12-18T16:22:25.466Z,-2.77
2022-12-18T16:24:54.953Z,-2.77
2022-12-18T16:27:24.869Z,-2.71
2022-12-18T16:29:53.554Z,-2.70
2022-12-18T16:32:24.653Z,-2.73
2022-12-18T16:34:56.373Z,-2.70
2022-12-18T16:37:28.448Z,-2.64
2022-12-18T16:39:56.915Z,-2.66
2022-12-18T16:42:25.841Z,-2.64
2022-12-18T16:44:54.453Z,-2.66
2022-12-18T16:47:26.256Z,-2.57
2022-12-18T16:49:55.472Z,-2.57
2022-12-18T16:52:24.329Z,-2.57
2022-12-18T16:54:52.680Z,-2.61
2022-12-18T16:57:24.017Z,-2.65
2022-12-18T17:00:02.963Z,-2.62
2022-12-18T17:02:34.153Z,-2.59
2022-12-18T17:05:02.558Z,-2.64
2022-12-18T17:07:30.778Z,-2.60
2022-12-18T17:10:01.609Z,-2.64
2022-12-18T17:12:30.276Z,-2.61
2022-12-18T17:14:58.290Z,-2.56
2022-12-18T17:17:27.080Z,-2.53
2022-12-18T17:19:54.745Z,-2.46
2022-12-18T17:22:26.971Z,-2.51
2022-12-18T17:24:55.151Z,-2.50
2022-12-18T17:27:27.502Z,-2.47
2022-12-18T17:29:58.979Z,-2.48
2022-12-18T17:32:27.528Z,-2.47
2022-12-18T17:34:57.087Z,-2.47
2022-12-18T17:37:26.141Z,-2.47
2022-12-18T17:39:56.815Z,-2.44
2022-12-18T17:42:25.063Z,-2.41
2022-12-18T17:44:53.686Z,-2.44
2022-12-18T17:47:21.991Z,-2.46
2022-12-18T17:49:49.966Z,-2.42
2022-12-18T17:52:22.158Z,-2.46
2022-12-18T17:54:50.604Z,-2.47
2022-12-18T17:57:18.987Z,-2.42
2022-12-18T17:59:48.700Z,-2.47
2022-12-18T18:02:17.568Z,-2.45
2022-12-18T18:04:45.463Z,-2.44
2022-12-18T18:07:13.852Z,-2.40
2022-12-18T18:09:42.706Z,-2.41
2022-12-18T18:12:29.243Z,-2.38
2022-12-18T18:14:57.113Z,-2.41
2022-12-18T18:17:25.897Z,-2.43
2022-12-18T18:19:54.132Z,-2.37
2022-12-18T18:22:23.391Z,-2.36
2022-12-18T18:24:51.929Z,-2.32
2022-12-18T18:27:20.153Z,-2.35
2022-12-18T18:29:51.720Z,-2.34
2022-12-18T18:32:19.726Z,-2.34
2022-12-18T18:34:47.248Z,-2.34
2022-12-18T18:37:15.529Z,-2.30
2022-12-18T18:39:43.350Z,-2.33
2022-12-18T18:42:11.215Z,-2.32
2022-12-18T18:44:44.517Z,-2.30
2022-12-18T18:47:26.589Z,-2.29
2022-12-18T18:49:54.766Z,-2.25
2022-12-18T18:52:25.627Z,-2.30
2022-12-18T18:55:12.167Z,-2.32
2022-12-18T18:57:42.629Z,-2.27
2022-12-18T19:00:14.837Z,-2.24
2022-12-18T19:02:43.307Z,-2.25
2022-12-18T19:05:11.395Z,-2.17
2022-12-18T19:07:39.582Z,-2.11
2022-12-18T19:10:07.812Z,-2.06
2022-12-18T19:12:53.907Z,-2.01
2022-12-18T19:15:23.225Z,-1.98
2022-12-18T19:17:54.070Z,-1.98
2022-12-18T19:20:23.657Z,-1.98
2022-12-18T19:22:56.196Z,-2.00
2022-12-18T19:25:40.146Z,-1.93
2022-12-18T19:28:16.431Z,-1.95
2022-12-18T19:30:50.872Z,-1.89
2022-12-18T19:36:21.805Z,-1.84
2022-12-18T19:38:56.672Z,-1.85
2022-12-18T19:41:25.629Z,-1.85
2022-12-18T19:43:59.949Z,-1.85
2022-12-18T19:46:29.170Z,-1.85
2022-12-18T19:49:00.295Z,-1.78
2022-12-18T19:51:32.285Z,-1.79
2022-12-18T19:54:01.940Z,-1.71
2022-12-18T19:56:33.458Z,-1.77
2022-12-18T19:59:03.019Z,-1.76
2022-12-18T20:01:33.883Z,-1.75
2022-12-18T20:04:02.754Z,-1.74
2022-12-18T20:06:48.258Z,-1.70
2022-12-18T20:09:17.151Z,-1.66
2022-12-18T20:11:47.221Z,-1.70
2022-12-18T20:14:22.482Z,-1.69
2022-12-18T20:16:53.079Z,-1.70
2022-12-18T20:19:24.313Z,-1.70
2022-12-18T20:21:52.184Z,-1.64
2022-12-18T20:24:19.992Z,-1.61
2022-12-18T20:26:49.185Z,-1.60
2022-12-18T20:29:17.558Z,-1.63
2022-12-18T20:31:46.592Z,-1.63
2022-12-18T20:34:16.030Z,-1.65
2022-12-18T20:36:46.291Z,-1.58
2022-12-18T20:39:14.454Z,-1.53
2022-12-18T20:41:44.261Z,-1.59
2022-12-18T20:44:22.644Z,-1.59
2022-12-18T20:47:08.543Z,-1.60
2022-12-18T20:49:36.430Z,-1.61
2022-12-18T20:52:06.865Z,-1.57
2022-12-18T20:54:37.795Z,-1.53
2022-12-18T20:57:05.619Z,-1.53
2022-12-18T20:59:33.815Z,-1.54
2022-12-18T21:02:01.160Z,-1.55
2022-12-18T21:04:29.525Z,-1.54
2022-12-18T21:07:02.287Z,-1.48
2022-12-18T21:09:37.436Z,-1.46
2022-12-18T21:12:30.213Z,-1.49
2022-12-18T21:15:09.175Z,-1.56
2022-12-18T21:17:44.239Z,-1.58
2022-12-18T21:20:17.900Z,-1.52
2022-12-18T21:22:45.928Z,-1.51
2022-12-18T21:25:13.394Z,-1.50
2022-12-18T21:27:42.734Z,-1.49
2022-12-18T21:30:10.864Z,-1.54
2022-12-18T21:32:38.102Z,-1.53
2022-12-18T21:35:08.368Z,-1.59
2022-12-18T21:37:35.797Z,-1.56
2022-12-18T21:40:04.583Z,-1.60
2022-12-18T21:42:50.404Z,-1.64
2022-12-18T21:45:17.829Z,-1.65
2022-12-18T21:47:47.274Z,-1.66
2022-12-18T21:50:14.650Z,-1.72
2022-12-18T21:52:41.872Z,-1.76
2022-12-18T21:55:10.353Z,-1.83
2022-12-18T21:57:40.420Z,-1.86
2022-12-18T22:00:18.237Z,-1.95
2022-12-18T22:02:48.579Z,-1.98
2022-12-18T22:05:37.858Z,-2.13
2022-12-18T22:08:06.945Z,-2.16
2022-12-18T22:10:35.087Z,-2.30
2022-12-18T22:13:02.449Z,-2.36
2022-12-18T22:15:29.812Z,-2.41
2022-12-18T22:18:00.058Z,-2.46
2022-12-18T22:20:29.917Z,-2.55
2022-12-18T22:22:57.820Z,-2.58
2022-12-18T22:25:25.145Z,-2.66
2022-12-18T22:28:10.903Z,-2.71
2022-12-18T22:30:38.479Z,-2.74
2022-12-18T22:33:05.549Z,-2.77
2022-12-18T22:35:32.910Z,-2.83
2022-12-18T22:38:02.400Z,-2.84
2022-12-18T22:40:29.967Z,-2.88
2022-12-18T22:42:59.271Z,-2.91
2022-12-18T22:45:26.965Z,-2.92
2022-12-18T22:47:55.575Z,-2.97
2022-12-18T22:50:23.594Z,-2.96
2022-12-18T22:52:53.042Z,-3.00
2022-12-18T22:55:20.516Z,-3.00
2022-12-18T22:57:48.998Z,-3.04
2022-12-18T23:00:17.890Z,-3.09
2022-12-18T23:02:59.484Z,-3.08
2022-12-18T23:05:29.588Z,-3.07
2022-12-18T23:07:56.616Z,-3.10
2022-12-18T23:10:24.115Z,-3.10
2022-12-18T23:12:51.175Z,-3.15
2022-12-18T23:15:19.869Z,-3.10
2022-12-18T23:17:56.548Z,-3.11
2022-12-18T23:20:24.067Z,-3.12
2022-12-18T23:22:51.113Z,-3.09
2022-12-18T23:25:18.649Z,-3.10
2022-12-18T23:27:45.633Z,-3.12
2022-12-18T23:30:13.424Z,-3.17
2022-12-18T23:32:40.488Z,-3.12
2022-12-18T23:35:08.228Z,-3.11
2022-12-18T23:37:58.849Z,-3.13
2022-12-18T23:40:24.572Z,-3.12
2022-12-18T23:42:51.510Z,-3.15
2022-12-18T23:45:18.806Z,-3.14
2022-12-18T23:47:51.130Z,-3.03
2022-12-18T23:50:18.730Z,-2.71
2022-12-18T23:52:45.674Z,-2.43
2022-12-18T23:55:13.092Z,-2.21
2022-12-18T23:57:40.075Z,-2.01
